createdAt,value
2022-08-09T00:00:13.416Z,22.55
2022-08-09T00:02:49.178Z,22.38
2022-08-09T00:06:15.721Z,22.49
2022-08-09T00:08:32.595Z,22.49
2022-08-09T00:11:00.642Z,22.58
2022-08-09T00:13:32.290Z,22.55
2022-08-09T00:16:02.846Z,22.58
2022-08-09T00:18:35.067Z,22.49
2022-08-09T00:21:04.946Z,22.39
2022-08-09T00:23:55.606Z,22.29
2022-08-09T00:26:18.871Z,22.44
2022-08-09T00:28:56.585Z,22.28
2022-08-09T00:31:56.929Z,22.32
2022-08-09T00:34:11.941Z,22.08
2022-08-09T00:36:41.515Z,22.26
2022-08-09T00:39:10.896Z,21.91
2022-08-09T00:44:13.717Z,21.96
2022-08-09T00:44:43.130Z,22.14
2022-08-09T00:47:15.454Z,21.62
2022-08-09T00:49:42.635Z,21.96
2022-08-09T00:52:19.315Z,22.01
2022-08-09T00:54:48.461Z,22.03
2022-08-09T00:57:33.656Z,21.85
2022-08-09T01:00:02.958Z,21.80
2022-08-09T01:02:50.098Z,21.71
2022-08-09T01:05:51.503Z,21.68
2022-08-09T01:08:49.642Z,21.60
2022-08-09T01:11:55.717Z,21.55
2022-08-09T01:14:35.145Z,21.60
2022-08-09T01:17:17.900Z,21.82
2022-08-09T01:20:02.553Z,21.93
2022-08-09T01:23:01.167Z,21.78
2022-08-09T01:26:00.824Z,21.19
2022-08-09T01:28:29.924Z,21.63
2022-08-09T01:31:00.874Z,21.06
2022-08-09T01:33:33.183Z,21.26
2022-08-09T01:36:04.412Z,21.16
2022-08-09T01:38:35.762Z,20.75
2022-08-09T01:41:10.882Z,21.26
2022-08-09T01:43:51.161Z,21.30
2022-08-09T01:46:27.336Z,21.43
2022-08-09T01:49:00.156Z,21.54
2022-08-09T01:51:37.414Z,21.45
2022-08-09T01:54:10.182Z,21.47
2022-08-09T01:56:41.812Z,21.54
2022-08-09T01:59:11.364Z,21.13
2022-08-09T02:01:58.413Z,21.31
2022-08-09T02:04:28.344Z,20.74
2022-08-09T02:08:00.104Z,21.03
2022-08-09T02:10:13.607Z,21.01
2022-08-09T02:12:43.954Z,21.32
2022-08-09T02:15:16.943Z,21.22
2022-08-09T02:18:01.196Z,21.31
2022-08-09T02:20:40.660Z,21.10
2022-08-09T02:23:17.863Z,21.08
2022-08-09T02:25:52.480Z,20.73
2022-08-09T02:28:33.099Z,21.06
2022-08-09T02:31:07.458Z,21.13
2022-08-09T02:34:06.897Z,20.78
2022-08-09T02:36:35.164Z,20.68
2022-08-09T02:39:06.048Z,20.96
2022-08-09T02:41:41.701Z,20.74
2022-08-09T02:44:29.032Z,20.91
2022-08-09T02:46:58.178Z,20.49
2022-08-09T02:49:38.342Z,20.63
2022-08-09T02:52:11.861Z,20.55
2022-08-09T02:54:54.339Z,20.50
2022-08-09T02:57:23.554Z,20.48
2022-08-09T03:00:11.469Z,19.83
2022-08-09T03:02:59.803Z,20.72
2022-08-09T03:05:28.387Z,20.04
2022-08-09T03:07:56.115Z,20.51
2022-08-09T03:10:25.470Z,20.71
2022-08-09T03:12:54.605Z,20.56
2022-08-09T03:15:24.886Z,20.59
2022-08-09T03:18:11.886Z,20.18
2022-08-09T03:20:39.382Z,20.28
2022-08-09T03:23:15.129Z,20.23
2022-08-09T03:25:59.167Z,20.02
2022-08-09T03:28:33.679Z,19.98
2022-08-09T03:31:10.161Z,20.46
2022-08-09T03:33:54.407Z,20.43
2022-08-09T03:36:27.852Z,20.61
2022-08-09T03:38:54.948Z,20.49
2022-08-09T03:41:29.715Z,20.09
2022-08-09T03:44:09.924Z,20.08
2022-08-09T03:46:39.095Z,20.47
2022-08-09T03:49:08.870Z,20.52
2022-08-09T03:51:57.485Z,19.86
2022-08-09T03:54:38.494Z,20.05
2022-08-09T03:57:18.135Z,20.17
2022-08-09T03:59:54.228Z,20.26
2022-08-09T04:02:29.928Z,20.39
2022-08-09T04:04:59.001Z,19.94
2022-08-09T04:07:47.695Z,20.18
2022-08-09T04:10:15.390Z,20.23
2022-08-09T04:12:49.754Z,20.32
2022-08-09T04:15:38.768Z,20.28
2022-08-09T04:18:06.734Z,20.25
2022-08-09T04:20:33.570Z,20.37
2022-08-09T04:23:00.631Z,20.36
2022-08-09T04:25:29.011Z,20.20
2022-08-09T04:27:59.930Z,20.19
2022-08-09T04:30:31.589Z,19.46
2022-08-09T04:33:00.117Z,20.00
2022-08-09T04:35:27.853Z,20.16
2022-08-09T04:37:59.144Z,20.11
2022-08-09T04:40:48.213Z,19.87
2022-08-09T04:43:22.590Z,19.96
2022-08-09T04:45:54.022Z,19.97
2022-08-09T04:48:21.461Z,19.93
2022-08-09T04:50:50.548Z,20.11
2022-08-09T04:53:17.325Z,20.06
2022-08-09T04:55:58.816Z,20.05
2022-08-09T04:58:31.928Z,20.09
2022-08-09T05:01:00.472Z,20.00
2022-08-09T05:03:40.979Z,19.99
2022-08-09T05:06:21.987Z,19.96
2022-08-09T05:09:00.214Z,20.06
2022-08-09T05:11:30.458Z,19.88
2022-08-09T05:13:59.025Z,19.86
2022-08-09T05:16:31.452Z,20.22
2022-08-09T05:19:00.108Z,20.45
2022-08-09T05:21:29.827Z,20.63
2022-08-09T05:24:01.270Z,20.74
2022-08-09T05:26:36.656Z,20.84
2022-08-09T05:29:17.317Z,20.96
2022-08-09T05:31:47.568Z,21.04
2022-08-09T05:34:18.663Z,20.94
2022-08-09T05:36:47.185Z,21.14
2022-08-09T05:39:15.224Z,21.31
2022-08-09T05:41:55.938Z,21.42
2022-08-09T05:44:29.209Z,21.54
2022-08-09T05:47:00.011Z,21.67
2022-08-09T05:50:24.283Z,21.75
2022-08-09T05:52:13.364Z,21.14
2022-08-09T05:54:40.203Z,21.60
2022-08-09T05:57:07.700Z,21.91
2022-08-09T05:59:39.569Z,21.82
2022-08-09T06:02:09.962Z,21.99
2022-08-09T06:04:36.889Z,21.94
2022-08-09T06:07:11.626Z,22.18
2022-08-09T06:09:55.106Z,22.08
2022-08-09T06:12:29.220Z,21.28
2022-08-09T06:15:00.654Z,21.89
2022-08-09T06:17:28.015Z,22.09
2022-08-09T06:20:07.829Z,21.98
2022-08-09T06:22:34.746Z,22.06
2022-08-09T06:25:01.513Z,22.09
2022-08-09T06:27:42.436Z,22.23
2022-08-09T06:30:11.004Z,22.42
2022-08-09T06:33:13.636Z,22.24
2022-08-09T06:35:55.938Z,22.48
2022-08-09T06:38:15.982Z,22.36
2022-08-09T06:40:43.158Z,22.44
2022-08-09T06:43:11.466Z,22.64
2022-08-09T06:46:06.399Z,22.39
2022-08-09T06:48:30.687Z,22.55
2022-08-09T06:50:59.712Z,22.55
2022-08-09T06:53:26.641Z,22.62
2022-08-09T06:55:53.435Z,22.68
2022-08-09T07:00:52.180Z,22.62
2022-08-09T07:01:07.850Z,22.92
2022-08-09T07:03:39.626Z,23.07
2022-08-09T07:06:19.007Z,23.25
2022-08-09T07:08:46.744Z,23.17
2022-08-09T07:11:17.623Z,23.04
2022-08-09T07:14:04.880Z,23.05
2022-08-09T07:16:42.092Z,23.28
2022-08-09T07:19:15.622Z,23.29
2022-08-09T07:21:57.514Z,23.33
2022-08-09T07:24:32.109Z,23.00
2022-08-09T07:27:10.978Z,23.26
2022-08-09T07:29:58.568Z,23.51
2022-08-09T07:32:32.226Z,23.42
2022-08-09T07:35:02.814Z,23.60
2022-08-09T07:37:42.834Z,23.60
2022-08-09T07:40:26.966Z,23.63
2022-08-09T07:42:59.770Z,23.86
2022-08-09T07:45:36.901Z,23.83
2022-08-09T07:48:05.396Z,23.95
2022-08-09T07:50:32.983Z,23.88
2022-08-09T07:53:04.860Z,23.73
2022-08-09T07:56:02.908Z,23.88
2022-08-09T07:58:18.980Z,23.66
2022-08-09T08:00:55.689Z,23.56
2022-08-09T08:03:26.744Z,23.95
2022-08-09T08:05:57.518Z,23.85
2022-08-09T08:09:00.981Z,23.48
2022-08-09T08:12:10.141Z,23.91
2022-08-09T08:13:58.090Z,24.01
2022-08-09T08:16:29.591Z,24.12
2022-08-09T08:18:58.734Z,24.15
2022-08-09T08:21:25.369Z,24.09
2022-08-09T08:23:56.221Z,24.20
2022-08-09T08:26:41.659Z,24.37
2022-08-09T08:29:09.664Z,24.17
2022-08-09T08:32:02.253Z,24.21
2022-08-09T08:34:25.351Z,24.34
2022-08-09T08:36:52.427Z,24.45
2022-08-09T08:39:19.034Z,24.66
2022-08-09T08:41:52.037Z,24.63
2022-08-09T08:44:27.375Z,24.47
2022-08-09T08:47:02.250Z,24.80
2022-08-09T08:49:38.711Z,24.87
2022-08-09T08:52:48.560Z,24.87
2022-08-09T08:55:03.984Z,24.94
2022-08-09T08:57:34.898Z,24.87
2022-08-09T09:00:12.867Z,24.89
2022-08-09T09:02:52.527Z,25.02
2022-08-09T09:05:57.482Z,25.16
2022-08-09T09:08:29.743Z,25.20
2022-08-09T09:11:00.086Z,25.04
2022-08-09T09:13:41.945Z,24.47
2022-08-09T09:16:13.479Z,24.92
2022-08-09T09:18:44.620Z,24.99
2022-08-09T09:21:16.312Z,25.28
2022-08-09T09:23:58.464Z,25.12
2022-08-09T09:26:34.790Z,25.45
2022-08-09T09:29:10.283Z,25.31
2022-08-09T09:32:06.203Z,25.33
2022-08-09T09:34:37.979Z,25.62
2022-08-09T09:37:06.665Z,25.57
2022-08-09T09:39:55.453Z,25.29
2022-08-09T09:42:27.693Z,24.79
2022-08-09T09:44:59.293Z,24.83
2022-08-09T09:47:28.465Z,25.52
2022-08-09T09:50:14.988Z,25.76
2022-08-09T09:52:56.390Z,25.84
2022-08-09T09:55:31.987Z,25.75
2022-08-09T09:58:16.952Z,25.68
2022-08-09T10:00:52.633Z,25.71
2022-08-09T10:03:44.657Z,25.76
2022-08-09T10:06:23.416Z,25.79
2022-08-09T10:08:54.900Z,25.99
2022-08-09T10:11:59.138Z,26.06
2022-08-09T10:14:31.934Z,26.12
2022-08-09T10:17:40.340Z,26.17
2022-08-09T10:19:59.207Z,25.97
2022-08-09T10:22:33.598Z,26.28
2022-08-09T10:25:10.835Z,26.38
2022-08-09T10:27:45.377Z,26.41
2022-08-09T10:34:04.537Z,26.46
2022-08-09T10:36:01.263Z,26.57
2022-08-09T10:38:54.518Z,26.79
2022-08-09T10:41:18.738Z,26.72
2022-08-09T10:43:50.645Z,26.63
2022-08-09T10:46:57.808Z,26.79
2022-08-09T10:49:54.185Z,26.81
2022-08-09T10:52:42.915Z,26.73
2022-08-09T10:55:22.659Z,26.92
2022-08-09T10:57:51.872Z,27.01
2022-08-09T11:01:10.988Z,26.99
2022-08-09T11:03:51.463Z,27.06
2022-08-09T11:06:20.827Z,27.08
2022-08-09T11:08:51.126Z,27.06
2022-08-09T11:11:21.391Z,27.20
2022-08-09T11:14:28.298Z,26.63
2022-08-09T11:16:57.003Z,26.71
2022-08-09T11:20:11.022Z,26.95
2022-08-09T11:22:45.287Z,27.55
2022-08-09T11:25:11.982Z,27.06
2022-08-09T11:28:02.450Z,27.25
2022-08-09T11:30:32.500Z,27.53
2022-08-09T11:33:21.725Z,27.41
2022-08-09T11:36:00.631Z,27.12
2022-08-09T11:38:32.875Z,27.45
2022-08-09T11:41:13.537Z,27.43
2022-08-09T11:43:46.601Z,27.48
2022-08-09T11:46:26.692Z,27.52
2022-08-09T11:49:00.893Z,27.54
2022-08-09T11:53:02.717Z,27.75
2022-08-09T11:55:34.870Z,27.80
2022-08-09T11:58:16.095Z,27.55
2022-08-09T12:00:52.908Z,27.79
2022-08-09T12:03:55.063Z,27.47
2022-08-09T12:06:16.878Z,27.89
2022-08-09T12:08:50.192Z,27.92
2022-08-09T12:11:18.972Z,27.96
2022-08-09T12:14:09.439Z,28.05
2022-08-09T12:16:42.913Z,28.33
2022-08-09T12:19:12.988Z,27.76
2022-08-09T12:21:50.251Z,27.98
2022-08-09T12:24:23.950Z,28.18
2022-08-09T12:28:59.432Z,28.07
2022-08-09T12:29:52.603Z,28.32
2022-08-09T12:32:27.490Z,28.16
2022-08-09T12:35:02.727Z,28.29
2022-08-09T12:37:33.473Z,28.25
2022-08-09T12:40:11.825Z,28.09
2022-08-09T12:42:44.242Z,28.31
2022-08-09T12:45:32.344Z,28.53
2022-08-09T12:47:58.813Z,28.49
2022-08-09T12:50:25.547Z,28.52
2022-08-09T12:53:09.190Z,28.65
2022-08-09T12:56:14.165Z,28.48
2022-08-09T12:58:28.175Z,28.50
2022-08-09T13:00:55.986Z,28.71
2022-08-09T13:03:58.978Z,28.51
2022-08-09T13:06:34.838Z,28.75
2022-08-09T13:09:06.905Z,28.71
2022-08-09T13:11:39.490Z,28.80
2022-08-09T13:14:40.975Z,28.74
2022-08-09T13:17:02.537Z,28.54
2022-08-09T13:20:10.100Z,28.61
2022-08-09T13:22:36.328Z,28.96
2022-08-09T13:25:07.481Z,29.02
2022-08-09T13:27:48.937Z,29.10
2022-08-09T13:31:11.024Z,29.21
2022-08-09T13:33:11.541Z,28.64
2022-08-09T13:36:38.866Z,28.93
2022-08-09T13:38:57.795Z,29.22
2022-08-09T13:41:58.539Z,28.90
2022-08-09T13:44:08.377Z,29.02
2022-08-09T13:47:16.905Z,29.13
2022-08-09T13:49:37.556Z,28.96
2022-08-09T13:52:09.199Z,29.11
2022-08-09T13:54:42.827Z,29.06
2022-08-09T13:57:35.895Z,29.27
2022-08-09T14:00:02.890Z,29.27
2022-08-09T14:02:42.452Z,29.46
2022-08-09T14:05:56.706Z,29.40
2022-08-09T14:08:11.246Z,29.47
2022-08-09T14:10:49.426Z,29.17
2022-08-09T14:13:28.403Z,29.14
2022-08-09T14:16:10.363Z,29.21
2022-08-09T14:18:45.232Z,29.23
2022-08-09T14:21:17.406Z,28.92
2022-08-09T14:23:53.926Z,28.94
2022-08-09T14:26:24.087Z,29.29
2022-08-09T14:28:57.006Z,29.50
2022-08-09T14:31:36.392Z,29.03
2022-08-09T14:34:11.079Z,28.91
2022-08-09T14:36:42.621Z,29.28
2022-08-09T14:39:09.848Z,29.52
2022-08-09T14:41:41.870Z,29.44
2022-08-09T14:44:11.445Z,29.43
2022-08-09T14:47:04.924Z,29.37
2022-08-09T14:49:26.786Z,29.30
2022-08-09T14:51:59.013Z,29.44
2022-08-09T14:54:28.225Z,29.55
2022-08-09T14:56:57.765Z,29.58
2022-08-09T14:59:25.137Z,29.29
2022-08-09T15:01:53.702Z,29.42
2022-08-09T15:04:20.560Z,29.50
2022-08-09T15:06:51.417Z,29.29
2022-08-09T15:10:03.904Z,29.37
2022-08-09T15:12:08.010Z,29.51
2022-08-09T15:14:38.521Z,29.43
2022-08-09T15:17:09.490Z,28.98
2022-08-09T15:19:37.043Z,29.02
2022-08-09T15:22:26.170Z,29.09
2022-08-09T15:24:53.511Z,28.82
2022-08-09T15:27:20.991Z,29.01
2022-08-09T15:30:55.390Z,28.83
2022-08-09T15:32:35.837Z,29.10
2022-08-09T15:35:18.264Z,29.06
2022-08-09T15:37:56.858Z,28.85
2022-08-09T15:40:37.060Z,28.87
2022-08-09T15:43:03.653Z,28.61
2022-08-09T15:45:30.621Z,28.73
2022-08-09T15:48:28.903Z,28.78
2022-08-09T15:50:57.983Z,28.92
2022-08-09T15:54:05.762Z,28.78
2022-08-09T15:56:21.479Z,28.70
2022-08-09T15:58:55.409Z,28.75
2022-08-09T16:01:22.120Z,28.50
2022-08-09T16:03:50.977Z,28.45
2022-08-09T16:06:35.066Z,28.39
2022-08-09T16:09:05.782Z,28.69
2022-08-09T16:11:33.202Z,28.79
2022-08-09T16:14:04.191Z,28.70
2022-08-09T16:16:34.661Z,28.62
2022-08-09T16:19:04.712Z,28.77
2022-08-09T16:21:31.628Z,28.64
2022-08-09T16:24:02.710Z,28.62
2022-08-09T16:26:33.615Z,28.63
2022-08-09T16:29:10.407Z,28.57
2022-08-09T16:32:18.961Z,28.63
2022-08-09T16:34:24.663Z,28.68
2022-08-09T16:36:51.327Z,28.63
2022-08-09T16:39:17.953Z,28.59
2022-08-09T16:42:03.885Z,28.58
2022-08-09T16:44:31.637Z,28.38
2022-08-09T16:47:04.045Z,28.37
2022-08-09T16:50:29.132Z,28.46
2022-08-09T16:52:31.975Z,28.51
2022-08-09T16:54:58.769Z,28.49
2022-08-09T16:57:25.355Z,28.40
2022-08-09T16:59:57.923Z,28.26
2022-08-09T17:02:25.569Z,28.15
2022-08-09T17:04:52.719Z,28.30
2022-08-09T17:08:43.814Z,28.29
2022-08-09T17:10:08.761Z,28.15
2022-08-09T17:12:35.862Z,28.26
2022-08-09T17:15:31.481Z,28.13
2022-08-09T17:17:50.644Z,28.07
2022-08-09T17:20:32.269Z,28.08
2022-08-09T17:23:05.067Z,28.09
2022-08-09T17:25:37.380Z,28.04
2022-08-09T17:28:06.499Z,27.95
2022-08-09T17:30:34.152Z,27.97
2022-08-09T17:33:05.720Z,28.07
2022-08-09T17:35:49.430Z,28.03
2022-08-09T17:38:29.271Z,27.98
2022-08-09T17:41:01.331Z,27.77
2022-08-09T17:43:33.976Z,27.77
2022-08-09T17:46:06.078Z,27.64
2022-08-09T17:48:39.169Z,27.80
2022-08-09T17:51:10.247Z,27.83
2022-08-09T17:53:51.933Z,27.62
2022-08-09T17:56:35.882Z,27.70
2022-08-09T17:59:11.451Z,27.74
2022-08-09T18:01:57.951Z,27.59
2022-08-09T18:04:26.601Z,27.68
2022-08-09T18:06:55.042Z,27.76
2022-08-09T18:09:25.243Z,27.98
2022-08-09T18:12:18.139Z,28.29
2022-08-09T18:14:49.824Z,28.11
2022-08-09T18:17:18.643Z,28.22
2022-08-09T18:21:00.490Z,28.24
2022-08-09T18:22:33.962Z,28.26
2022-08-09T18:25:00.922Z,27.93
2022-08-09T18:28:02.812Z,27.99
2022-08-09T18:30:41.446Z,28.05
2022-08-09T18:33:02.106Z,27.93
2022-08-09T18:35:47.980Z,28.22
2022-08-09T18:38:25.890Z,28.29
2022-08-09T18:40:55.358Z,27.98
2022-08-09T18:43:23.569Z,28.50
2022-08-09T18:46:46.622Z,28.02
2022-08-09T18:48:36.964Z,28.07
2022-08-09T18:51:03.651Z,28.16
2022-08-09T18:53:56.586Z,27.80
2022-08-09T18:56:20.010Z,27.96
2022-08-09T18:58:55.538Z,27.74
2022-08-09T19:01:23.260Z,27.52
2022-08-09T19:04:01.015Z,27.70
2022-08-09T19:06:32.999Z,27.89
2022-08-09T19:09:02.633Z,28.07
2022-08-09T19:11:37.674Z,27.90
2022-08-09T19:14:06.440Z,27.41
2022-08-09T19:16:36.424Z,27.79
2022-08-09T19:19:25.038Z,27.96
2022-08-09T19:22:05.095Z,27.86
2022-08-09T19:25:07.250Z,27.99
2022-08-09T19:27:21.914Z,27.63
2022-08-09T19:30:22.327Z,27.37
2022-08-09T19:32:36.723Z,27.59
2022-08-09T19:35:04.383Z,27.53
2022-08-09T19:37:40.927Z,26.94
2022-08-09T19:40:19.354Z,27.32
2022-08-09T19:42:49.614Z,26.76
2022-08-09T19:45:16.714Z,27.21
2022-08-09T19:47:44.588Z,27.33
2022-08-09T19:50:51.028Z,26.76
2022-08-09T19:52:59.405Z,26.68
2022-08-09T19:55:39.198Z,27.10
2022-08-09T19:58:16.515Z,27.03
2022-08-09T20:00:45.447Z,26.73
2022-08-09T20:04:09.706Z,26.84
2022-08-09T20:06:00.023Z,26.81
2022-08-09T20:08:35.253Z,26.68
2022-08-09T20:11:04.494Z,26.38
2022-08-09T20:13:36.778Z,26.81
2022-08-09T20:16:34.715Z,26.82
2022-08-09T20:19:42.501Z,26.50
2022-08-09T20:21:55.200Z,26.61
2022-08-09T20:24:31.714Z,26.95
2022-08-09T20:27:02.078Z,27.00
2022-08-09T20:29:32.623Z,26.89
2022-08-09T20:32:29.301Z,26.67
2022-08-09T20:34:50.795Z,26.45
2022-08-09T20:37:21.321Z,26.59
2022-08-09T20:40:16.500Z,26.28
2022-08-09T20:42:35.918Z,26.05
2022-08-09T20:45:59.628Z,26.38
2022-08-09T20:47:51.904Z,26.21
2022-08-09T20:50:47.356Z,26.47
2022-08-09T20:53:05.434Z,25.85
2022-08-09T20:56:00.985Z,26.01
2022-08-09T20:58:32.632Z,26.14
2022-08-09T21:01:32.996Z,26.06
2022-08-09T21:05:49.222Z,25.94
2022-08-09T21:06:35.819Z,26.23
2022-08-09T21:09:02.677Z,26.18
2022-08-09T21:14:16.861Z,26.10
2022-08-09T21:16:45.851Z,26.12
2022-08-09T21:20:19.619Z,25.91
2022-08-09T21:21:59.363Z,26.08
2022-08-09T21:24:28.392Z,25.96
2022-08-09T21:26:55.729Z,25.42
2022-08-09T21:29:22.965Z,25.84
2022-08-09T21:31:49.921Z,25.70
2022-08-09T21:34:28.713Z,25.80
2022-08-09T21:36:56.750Z,25.67
2022-08-09T21:39:28.446Z,25.65
2022-08-09T21:42:10.424Z,25.82
2022-08-09T21:44:37.933Z,25.29
2022-08-09T21:47:07.660Z,25.19
2022-08-09T21:49:43.205Z,25.58
2022-08-09T21:52:17.907Z,25.27
2022-08-09T21:54:59.505Z,24.97
2022-08-09T21:57:38.413Z,25.38
2022-08-09T22:00:33.265Z,25.29
2022-08-09T22:03:06.361Z,25.41
2022-08-09T22:05:42.277Z,25.38
2022-08-09T22:08:13.722Z,25.21
2022-08-09T22:11:50.465Z,25.26
2022-08-09T22:13:31.443Z,25.31
2022-08-09T22:16:03.654Z,25.35
2022-08-09T22:18:32.853Z,25.13
2022-08-09T22:21:00.742Z,25.25
2022-08-09T22:23:35.304Z,25.21
2022-08-09T22:26:08.074Z,25.21
2022-08-09T22:28:47.139Z,25.19
2022-08-09T22:31:20.604Z,25.08
2022-08-09T22:33:55.200Z,25.15
2022-08-09T22:36:22.115Z,25.11
2022-08-09T22:38:48.840Z,24.99
2022-08-09T22:41:15.414Z,25.01
2022-08-09T22:44:00.723Z,24.90
2022-08-09T22:48:11.603Z,24.68
2022-08-09T22:49:16.006Z,24.83
2022-08-09T22:51:43.497Z,24.89
2022-08-09T22:54:21.312Z,24.61
2022-08-09T22:56:50.814Z,24.71
2022-08-09T22:59:57.431Z,24.56
2022-08-09T23:02:08.126Z,24.77
2022-08-09T23:04:34.716Z,24.43
2022-08-09T23:08:01.487Z,24.46
2022-08-09T23:10:10.976Z,24.53
2022-08-09T23:12:37.560Z,24.53
2022-08-09T23:15:04.971Z,24.52
2022-08-09T23:17:31.714Z,24.28
2022-08-09T23:20:06.755Z,23.84
2022-08-09T23:22:34.490Z,24.16
2022-08-09T23:25:04.840Z,24.33
2022-08-09T23:27:31.988Z,24.36
2022-08-09T23:29:58.650Z,24.37
2022-08-09T23:32:25.137Z,24.36
2022-08-09T23:34:51.715Z,24.29
2022-08-09T23:37:20.523Z,24.12
2022-08-09T23:39:48.440Z,24.15
2022-08-09T23:42:15.053Z,24.11
2022-08-09T23:44:41.894Z,24.15
2022-08-09T23:47:08.429Z,23.99
2022-08-09T23:49:34.996Z,23.82
2022-08-09T23:52:01.660Z,24.02
2022-08-09T23:54:28.217Z,23.85
2022-08-09T23:56:56.295Z,23.65
2022-08-09T23:59:25.833Z,23.72
